Marjorie C — WDH6745 — position and weather

sailwx.info

Track history (hours):
 
Tides and Currents Weather Stations Pressure Air Temp Water Temp Dewpoint Dewpoint Depression Visibility Wind Speed Wind Dir Waves Ship Positions

Marjorie C

Owner: Pasha Hawaii Shipping Company LLC, San Rafael, CA. More information available from US FCC via Universal Licensing System and Coast Guard Vessel Documentation Center.

Last reported at 2018-Jul-19 11:20 UTC. Time now 2018-Jul-19 11:47 UTC.
Position N 31°41' W 125°43'.

Length 210 m; draft 9.5 m.

Type: Cargo ship. MMSI: 367641230.

Date/timePositionNaut miles runAvg speedWind from/ knotsBaromVisibWave heightAir tempDewpointWater temp
2018-Jul-19 11:20N 31°41' W 125°43'920.6
2018-Jul-19 10:54N 31°43' W 125°33'1620.6
2018-Jul-19 10:08N 31°46' W 125°15'320.4
2018-Jul-19 09:59N 31°47' W 125°12'1320.3
2018-Jul-19 09:22N 31°50' W 124°57'720.6
2018-Jul-19 09:01N 31°51' W 124°49'1020.0
2018-Jul-19 08:30N 31°54' W 124°37'1019.0
2018-Jul-19 08:00N 31°56' W 124°26'917.4
2018-Jul-19 07:30N 31°58' W 124°16'816.5
2018-Jul-19 07:00N 32°00' W 124°07'916.5
2018-Jul-19 06:29N 32°03' W 123°57'816.1
2018-Jul-19 06:01N 32°05' W 123°48'918.0
2018-Jul-19 05:31N 32°07' W 123°38'1120.6
2018-Jul-19 05:00N 32°09' W 123°26'1020.8
2018-Jul-19 04:30N 32°12' W 123°14'1020.3
2018-Jul-19 04:01N 32°14' W 123°03'1020.2
2018-Jul-19 03:30N 32°16' W 122°51'1020.3
2018-Jul-19 03:00N 32°19' W 122°39'1020.5
2018-Jul-19 02:30N 32°21' W 122°28'1020.6
2018-Jul-19 02:00N 32°24' W 122°16'1020.5
2018-Jul-19 01:30N 32°26' W 122°04'1020.4
2018-Jul-19 01:00N 32°28' W 121°52'1020.7
2018-Jul-19 00:30N 32°31' W 121°40'1020.5
2018-Jul-19 00:00N 32°33' W 121°28'1020.2
2018-Jul-18 23:30N 32°35' W 121°17'1020.0
2018-Jul-18 23:01N 32°38' W 121°05'1019.9
2018-Jul-18 22:30N 32°40' W 120°54'1020.0
2018-Jul-18 22:00N 32°41' W 120°42'4619.6
2018-Jul-18 19:39N 32°49' W 119°48'920.4
2018-Jul-18 19:11N 32°53' W 119°37'419.9
2018-Jul-18 19:00N 32°54' W 119°33'1020.5
2018-Jul-18 18:31N 32°58' W 119°22'1020.2
2018-Jul-18 18:00N 33°03' W 119°12'1020.3
2018-Jul-18 17:30N 33°10' W 119°03'1020.2
2018-Jul-18 17:00N 33°18' W 118°55'1020.3
2018-Jul-18 16:30N 33°26' W 118°47'1019.1
2018-Jul-18 16:00N 33°32' W 118°39'1019.1
2018-Jul-18 15:30N 33°35' W 118°27'816.7
2018-Jul-18 15:00N 33°38' W 118°18'510.6
2018-Jul-18 14:30N 33°42' W 118°15'3 3.3
2018-Jul-18 13:28N 33°46' W 118°17'0 0.0
2018-Jul-18 12:58N 33°46' W 118°17'0 0.0
2018-Jul-18 12:28N 33°46' W 118°17'0 0.0
2018-Jul-18 11:58N 33°46' W 118°17'0 0.0
2018-Jul-18 11:28N 33°46' W 118°17'0 0.0
2018-Jul-18 10:28N 33°46' W 118°17'0 0.0
2018-Jul-18 09:58N 33°46' W 118°17'0 0.0
2018-Jul-18 09:28N 33°46' W 118°17'0 0.0
2018-Jul-18 08:58N 33°46' W 118°17'0 0.0
2018-Jul-18 08:28N 33°46' W 118°17'0 0.0
2018-Jul-18 07:58N 33°46' W 118°17'0 0.0
2018-Jul-18 07:28N 33°46' W 118°17'0 0.0
2018-Jul-18 06:58N 33°46' W 118°17'0 0.0
2018-Jul-18 06:28N 33°46' W 118°17'0 0.0
2018-Jul-18 06:00N 33°46' W 118°17'0 0.0
2018-Jul-18 05:30N 33°46' W 118°17'0 0.0
2018-Jul-18 05:00N 33°46' W 118°17'0 0.0
2018-Jul-18 04:30N 33°46' W 118°17'0 0.0
2018-Jul-18 04:00N 33°46' W 118°17'0 0.0
2018-Jul-18 03:30N 33°46' W 118°17'0 0.0
2018-Jul-18 03:00N 33°46' W 118°17'0 0.0
2018-Jul-18 02:30N 33°46' W 118°17'0 0.0
2018-Jul-18 02:00N 33°46' W 118°17'0 0.0
2018-Jul-18 01:30N 33°46' W 118°17'0 0.0
2018-Jul-18 01:00N 33°46' W 118°17'0 0.0
2018-Jul-18 00:30N 33°46' W 118°17'0 0.0
2018-Jul-18 00:00N 33°46' W 118°17'0 0.0
2018-Jul-17 23:30N 33°46' W 118°17'0 0.0
2018-Jul-17 23:00N 33°46' W 118°17'0 0.0
2018-Jul-17 22:30N 33°46' W 118°17'0 0.0
2018-Jul-17 22:00N 33°46' W 118°17'0 0.0
2018-Jul-17 21:30N 33°46' W 118°17'0 0.0
2018-Jul-17 21:00N 33°46' W 118°17'0 0.0
2018-Jul-17 20:30N 33°46' W 118°17'0 0.0
2018-Jul-17 20:00N 33°46' W 118°17'0 0.0
2018-Jul-17 19:30N 33°46' W 118°17'0 0.0
2018-Jul-17 19:00N 33°46' W 118°17'0 0.0
2018-Jul-17 18:30N 33°46' W 118°17'0 0.0
2018-Jul-17 18:00N 33°46' W 118°17'0 0.0
2018-Jul-17 17:30N 33°46' W 118°17'0 0.0
2018-Jul-17 17:00N 33°46' W 118°17'0 0.0
2018-Jul-17 16:30N 33°46' W 118°17'0 0.0
2018-Jul-17 16:00N 33°46' W 118°17'0 0.0
2018-Jul-17 15:30N 33°46' W 118°17'0 0.0
2018-Jul-17 15:00N 33°46' W 118°17'0 0.0
2018-Jul-17 14:30N 33°46' W 118°17'0 0.0
2018-Jul-17 14:00N 33°46' W 118°17'0 0.0
2018-Jul-17 13:30N 33°46' W 118°17'0 0.0
2018-Jul-17 13:00N 33°46' W 118°17'0 0.0
2018-Jul-17 12:30N 33°46' W 118°17'0 0.0
2018-Jul-17 12:00N 33°46' W 118°17'0 0.0
2018-Jul-17 11:30N 33°46' W 118°17'0 0.0
2018-Jul-17 11:00N 33°46' W 118°17'0 0.0
2018-Jul-17 10:30N 33°46' W 118°17'0 0.0
2018-Jul-17 10:00N 33°46' W 118°17'0 0.0
2018-Jul-17 09:30N 33°46' W 118°17'0 0.0
2018-Jul-17 09:00N 33°46' W 118°17'0 0.0
2018-Jul-17 08:30N 33°46' W 118°17'0 0.0
2018-Jul-17 08:00N 33°46' W 118°17'0 0.0
2018-Jul-17 07:30N 33°46' W 118°17'0 0.0
2018-Jul-17 07:00N 33°46' W 118°17'0 0.0
2018-Jul-17 06:30N 33°46' W 118°17'0 0.0
2018-Jul-17 06:00N 33°46' W 118°17'0 0.0
2018-Jul-17 05:30N 33°46' W 118°17'0 0.0
2018-Jul-17 05:00N 33°46' W 118°17'0 0.0
2018-Jul-17 04:30N 33°46' W 118°17'0 0.0
2018-Jul-17 04:00N 33°46' W 118°17'0 0.0
2018-Jul-17 03:30N 33°46' W 118°17'0 0.0
2018-Jul-17 03:00N 33°46' W 118°17'0 0.0
2018-Jul-17 02:30N 33°46' W 118°17'0 0.0
2018-Jul-17 02:00N 33°46' W 118°17'0 0.0
2018-Jul-17 01:30N 33°46' W 118°17'0 0.0
2018-Jul-17 01:00N 33°46' W 118°17'0 0.0
2018-Jul-17 00:30N 33°46' W 118°17'0 0.1
2018-Jul-16 23:30N 33°45' W 118°17'2 4.1
2018-Jul-16 23:00N 33°43' W 118°16'4 8.5
2018-Jul-16 22:30N 33°40' W 118°13'4 7.8
2018-Jul-16 22:00N 33°37' W 118°11'4 8.3
2018-Jul-16 21:30N 33°33' W 118°09'5 9.9
2018-Jul-16 21:01N 33°28' W 118°07'714.0
2018-Jul-16 20:30N 33°22' W 118°04'816.0
2018-Jul-16 20:00N 33°15' W 117°58'1020.3
2018-Jul-16 19:30N 33°07' W 117°51'1021.0
2018-Jul-16 19:00N 32°58' W 117°44'1020.9
2018-Jul-16 18:30N 32°50' W 117°36'1019.9
2018-Jul-16 18:00N 32°43' W 117°28'918.5
2018-Jul-16 17:30N 32°38' W 117°18'4 8.7
2018-Jul-16 17:00N 32°40' W 117°14'3 6.9
2018-Jul-16 16:30N 32°43' W 117°12'4 8.9
2018-Jul-16 16:00N 32°40' W 117°08'2 3.5
2018-Jul-16 15:30N 32°39' W 117°07'0 0.0
2018-Jul-16 15:00N 32°39' W 117°07'0 0.0
2018-Jul-16 14:29N 32°39' W 117°07'0 0.0
2018-Jul-16 13:59N 32°39' W 117°07'0 0.0
2018-Jul-16 13:29N 32°39' W 117°07'0 0.0
2018-Jul-16 12:59N 32°39' W 117°07'0 0.0
2018-Jul-16 12:29N 32°39' W 117°07'0 0.0
2018-Jul-16 11:56N 32°39' W 117°07'0 0.0
2018-Jul-16 11:29N 32°39' W 117°07'0 0.0
2018-Jul-16 10:59N 32°39' W 117°07'0 0.0
2018-Jul-16 10:26N 32°39' W 117°07'0 0.0
2018-Jul-16 09:50N 32°39' W 117°07'0 0.0
2018-Jul-16 09:26N 32°39' W 117°07'0 0.0
2018-Jul-16 08:59N 32°39' W 117°07'0 0.0
2018-Jul-16 08:29N 32°39' W 117°07'0 0.0
2018-Jul-16 07:59N 32°39' W 117°07'0 0.0
2018-Jul-16 07:29N 32°39' W 117°07'0 0.0
2018-Jul-16 06:59N 32°39' W 117°07'0 0.0
2018-Jul-16 06:26N 32°39' W 117°07'0 0.0
2018-Jul-16 05:59N 32°39' W 117°07'0 0.0
2018-Jul-16 05:26N 32°39' W 117°07'0 0.0
2018-Jul-16 04:56N 32°39' W 117°07'0 0.0
2018-Jul-16 04:29N 32°39' W 117°07'0 0.0
2018-Jul-16 03:56N 32°39' W 117°07'0 0.0
2018-Jul-16 03:29N 32°39' W 117°07'0 0.0
2018-Jul-16 02:50N 32°39' W 117°07'0 0.0
2018-Jul-16 02:26N 32°39' W 117°07'0 0.0
2018-Jul-16 01:56N 32°39' W 117°07'0 0.0
2018-Jul-16 01:29N 32°39' W 117°07'0 0.0
2018-Jul-16 00:56N 32°39' W 117°07'0 0.0
2018-Jul-16 00:30N 32°39' W 117°07'0 0.0
2018-Jul-16 00:00N 32°39' W 117°07'0 0.7
2018-Jul-15 23:30N 32°39' W 117°07'3 5.9
2018-Jul-15 23:00N 32°41' W 117°09'4 8.3
2018-Jul-15 22:30N 32°42' W 117°14'510.3
2018-Jul-15 22:00N 32°37' W 117°14'4 8.2
2018-Jul-15 21:30N 32°34' W 117°17'510.4
2018-Jul-15 21:00N 32°30' W 117°21'714.5
2018-Jul-15 20:30N 32°24' W 117°26'714.6
2018-Jul-15 20:01N 32°18' W 117°32'612.6
2018-Jul-15 19:30N 32°13' W 117°36'612.8
2018-Jul-15 19:00N 32°07' W 117°39'713.0
2018-Jul-15 18:30N 32°01' W 117°43'612.9
2018-Jul-15 18:00N 31°56' W 117°47'612.8
2018-Jul-15 17:30N 31°51' W 117°52'713.0
2018-Jul-15 17:00N 31°46' W 117°56'714.9
2018-Jul-15 16:30N 31°40' W 118°01'817.0
2018-Jul-15 16:00N 31°33' W 118°07'917.0
2018-Jul-15 15:30N 31°26' W 118°13'816.7
2018-Jul-15 15:00N 31°19' W 118°18'714.3
2018-Jul-15 14:30N 31°13' W 118°23'713.9
2018-Jul-15 14:00N 31°08' W 118°28'713.6
2018-Jul-15 13:30N 31°02' W 118°33'713.8
2018-Jul-15 13:00N 30°57' W 118°38'815.0
2018-Jul-15 12:30N 30°52' W 118°45'1019.8
2018-Jul-15 12:00N 30°50' W 118°56'1019.8
2018-Jul-15 11:30N 30°48' W 119°07'1019.7
2018-Jul-15 11:00N 30°47' W 119°19'1019.6
2018-Jul-15 10:30N 30°45' W 119°30'1019.4
2018-Jul-15 10:01N 30°43' W 119°41'1019.5
2018-Jul-15 09:30N 30°41' W 119°52'1019.7
2018-Jul-15 09:00N 30°39' W 120°03'1019.3
2018-Jul-15 08:30N 30°37' W 120°15'1019.3
2018-Jul-15 08:00N 30°36' W 120°25'1019.0
2018-Jul-15 07:29N 30°34' W 120°37'919.0
2018-Jul-15 07:00N 30°32' W 120°47'1019.4
2018-Jul-15 06:30N 30°30' W 120°58'1019.3
2018-Jul-15 06:00N 30°29' W 121°09'5327.9
2018-Jul-15 06:00N 30°24' W 121°06'1326.0 360 / 201019.110.8 16.114.218.3
2018-Jul-15 05:30N 30°27' W 121°20'1019.3
2018-Jul-15 05:00N 30°25' W 121°31'1019.3
2018-Jul-15 04:30N 30°24' W 121°42'1019.5
2018-Jul-15 04:00N 30°22' W 121°53'1119.6
2018-Jul-15 03:26N 30°21' W 122°06'919.5
2018-Jul-15 02:58N 30°19' W 122°17'919.6
2018-Jul-15 02:30N 30°18' W 122°27'1119.6
2018-Jul-15 01:57N 30°16' W 122°39'919.4
2018-Jul-15 01:30N 30°15' W 122°49'1019.4
2018-Jul-15 00:59N 30°14' W 123°01'1019.5
2018-Jul-15 00:28N 30°12' W 123°12'919.5
2018-Jul-15 00:00N 30°11' W 123°23'1019.5
2018-Jul-14 23:30N 30°10' W 123°34'1019.6
2018-Jul-14 23:00N 30°08' W 123°45'1019.5
2018-Jul-14 22:30N 30°07' W 123°56'1219.3
2018-Jul-14 21:53N 30°05' W 124°10'819.2
2018-Jul-14 21:29N 30°04' W 124°19'919.3
2018-Jul-14 21:00N 30°02' W 124°30'1619.3
2018-Jul-14 20:09N 29°60' W 124°48'318.9
2018-Jul-14 20:00N 29°59' W 124°51'1819.2
2018-Jul-14 19:02N 29°56' W 125°12'118.8
2018-Jul-14 19:00N 29°56' W 125°13'1716.4
2018-Jul-14 18:00N 29°48' W 125°30'944.9 010 / 121023.010.8 18.313.420.0
2018-Jul-14 17:48N 29°52' W 125°39'2319.6
2018-Jul-14 16:36N 29°48' W 126°06'2420.3
2018-Jul-14 15:24N 29°44' W 126°33'6619.4
2018-Jul-14 12:00N 29°30' W 127°48'9121.0 360 / 101022.010.8 18.813.023.1
2018-Jul-14 07:38N 29°18' W 129°32'27320.0
2018-Jul-13 18:00N 28°18' W 134°36'12520.9 040 / 101024.010.8 20.513.824.1
2018-Jul-13 12:00N 27°48' W 136°54'80620.7 050 / 81022.010.8 20.014.424.6
2018-Jul-11 21:00N 23°42' W 151°06'5518.3 070 / 151021.010.8 25.518.727.9
2018-Jul-11 18:00N 23°18' W 152°00'   070 / 181022.010.8 24.419.327.9
Track history (hours):
 
Tides and Currents Weather Stations Pressure Air Temp Water Temp Dewpoint Dewpoint Depression Visibility Wind Speed Wind Dir Waves Ship Positions

Marjorie C

Owner: Pasha Hawaii Shipping Company LLC, San Rafael, CA. More information available from US FCC via Universal Licensing System and Coast Guard Vessel Documentation Center.

Last reported at 2018-Jul-19 11:20 UTC. Time now 2018-Jul-19 11:47 UTC.
Position N 31°41' W 125°43'.

Length 210 m; draft 9.5 m.

Type: Cargo ship. MMSI: 367641230.

Date/timePositionNaut miles runAvg speedWind from/ knotsBaromVisibWave heightAir tempDewpointWater temp
2018-Jul-19 11:20N 31°41' W 125°43'920.6
2018-Jul-19 10:54N 31°43' W 125°33'1620.6
2018-Jul-19 10:08N 31°46' W 125°15'320.4
2018-Jul-19 09:59N 31°47' W 125°12'1320.3
2018-Jul-19 09:22N 31°50' W 124°57'720.6
2018-Jul-19 09:01N 31°51' W 124°49'1020.0
2018-Jul-19 08:30N 31°54' W 124°37'1019.0
2018-Jul-19 08:00N 31°56' W 124°26'917.4
2018-Jul-19 07:30N 31°58' W 124°16'816.5
2018-Jul-19 07:00N 32°00' W 124°07'916.5
2018-Jul-19 06:29N 32°03' W 123°57'816.1
2018-Jul-19 06:01N 32°05' W 123°48'918.0
2018-Jul-19 05:31N 32°07' W 123°38'1120.6
2018-Jul-19 05:00N 32°09' W 123°26'1020.8
2018-Jul-19 04:30N 32°12' W 123°14'1020.3
2018-Jul-19 04:01N 32°14' W 123°03'1020.2
2018-Jul-19 03:30N 32°16' W 122°51'1020.3
2018-Jul-19 03:00N 32°19' W 122°39'1020.5
2018-Jul-19 02:30N 32°21' W 122°28'1020.6
2018-Jul-19 02:00N 32°24' W 122°16'1020.5
2018-Jul-19 01:30N 32°26' W 122°04'1020.4
2018-Jul-19 01:00N 32°28' W 121°52'1020.7
2018-Jul-19 00:30N 32°31' W 121°40'1020.5
2018-Jul-19 00:00N 32°33' W 121°28'1020.2
2018-Jul-18 23:30N 32°35' W 121°17'1020.0
2018-Jul-18 23:01N 32°38' W 121°05'1019.9
2018-Jul-18 22:30N 32°40' W 120°54'1020.0
2018-Jul-18 22:00N 32°41' W 120°42'4619.6
2018-Jul-18 19:39N 32°49' W 119°48'920.4
2018-Jul-18 19:11N 32°53' W 119°37'419.9
2018-Jul-18 19:00N 32°54' W 119°33'1020.5
2018-Jul-18 18:31N 32°58' W 119°22'1020.2
2018-Jul-18 18:00N 33°03' W 119°12'1020.3
2018-Jul-18 17:30N 33°10' W 119°03'1020.2
2018-Jul-18 17:00N 33°18' W 118°55'1020.3
2018-Jul-18 16:30N 33°26' W 118°47'1019.1
2018-Jul-18 16:00N 33°32' W 118°39'1019.1
2018-Jul-18 15:30N 33°35' W 118°27'816.7
2018-Jul-18 15:00N 33°38' W 118°18'510.6
2018-Jul-18 14:30N 33°42' W 118°15'3 3.3
2018-Jul-18 13:28N 33°46' W 118°17'0 0.0
2018-Jul-18 12:58N 33°46' W 118°17'0 0.0
2018-Jul-18 12:28N 33°46' W 118°17'0 0.0
2018-Jul-18 11:58N 33°46' W 118°17'0 0.0
2018-Jul-18 11:28N 33°46' W 118°17'0 0.0
2018-Jul-18 10:28N 33°46' W 118°17'0 0.0
2018-Jul-18 09:58N 33°46' W 118°17'0 0.0
2018-Jul-18 09:28N 33°46' W 118°17'0 0.0
2018-Jul-18 08:58N 33°46' W 118°17'0 0.0
2018-Jul-18 08:28N 33°46' W 118°17'0 0.0
2018-Jul-18 07:58N 33°46' W 118°17'0 0.0
2018-Jul-18 07:28N 33°46' W 118°17'0 0.0
2018-Jul-18 06:58N 33°46' W 118°17'0 0.0
2018-Jul-18 06:28N 33°46' W 118°17'0 0.0
2018-Jul-18 06:00N 33°46' W 118°17'0 0.0
2018-Jul-18 05:30N 33°46' W 118°17'0 0.0
2018-Jul-18 05:00N 33°46' W 118°17'0 0.0
2018-Jul-18 04:30N 33°46' W 118°17'0 0.0
2018-Jul-18 04:00N 33°46' W 118°17'0 0.0
2018-Jul-18 03:30N 33°46' W 118°17'0 0.0
2018-Jul-18 03:00N 33°46' W 118°17'0 0.0
2018-Jul-18 02:30N 33°46' W 118°17'0 0.0
2018-Jul-18 02:00N 33°46' W 118°17'0 0.0
2018-Jul-18 01:30N 33°46' W 118°17'0 0.0
2018-Jul-18 01:00N 33°46' W 118°17'0 0.0
2018-Jul-18 00:30N 33°46' W 118°17'0 0.0
2018-Jul-18 00:00N 33°46' W 118°17'0 0.0
2018-Jul-17 23:30N 33°46' W 118°17'0 0.0
2018-Jul-17 23:00N 33°46' W 118°17'0 0.0
2018-Jul-17 22:30N 33°46' W 118°17'0 0.0
2018-Jul-17 22:00N 33°46' W 118°17'0 0.0
2018-Jul-17 21:30N 33°46' W 118°17'0 0.0
2018-Jul-17 21:00N 33°46' W 118°17'0 0.0
2018-Jul-17 20:30N 33°46' W 118°17'0 0.0
2018-Jul-17 20:00N 33°46' W 118°17'0 0.0
2018-Jul-17 19:30N 33°46' W 118°17'0 0.0
2018-Jul-17 19:00N 33°46' W 118°17'0 0.0
2018-Jul-17 18:30N 33°46' W 118°17'0 0.0
2018-Jul-17 18:00N 33°46' W 118°17'0 0.0
2018-Jul-17 17:30N 33°46' W 118°17'0 0.0
2018-Jul-17 17:00N 33°46' W 118°17'0 0.0
2018-Jul-17 16:30N 33°46' W 118°17'0 0.0
2018-Jul-17 16:00N 33°46' W 118°17'0 0.0
2018-Jul-17 15:30N 33°46' W 118°17'0 0.0
2018-Jul-17 15:00N 33°46' W 118°17'0 0.0
2018-Jul-17 14:30N 33°46' W 118°17'0 0.0
2018-Jul-17 14:00N 33°46' W 118°17'0 0.0
2018-Jul-17 13:30N 33°46' W 118°17'0 0.0
2018-Jul-17 13:00N 33°46' W 118°17'0 0.0
2018-Jul-17 12:30N 33°46' W 118°17'0 0.0
2018-Jul-17 12:00N 33°46' W 118°17'0 0.0
2018-Jul-17 11:30N 33°46' W 118°17'0 0.0
2018-Jul-17 11:00N 33°46' W 118°17'0 0.0
2018-Jul-17 10:30N 33°46' W 118°17'0 0.0
2018-Jul-17 10:00N 33°46' W 118°17'0 0.0
2018-Jul-17 09:30N 33°46' W 118°17'0 0.0
2018-Jul-17 09:00N 33°46' W 118°17'0 0.0
2018-Jul-17 08:30N 33°46' W 118°17'0 0.0
2018-Jul-17 08:00N 33°46' W 118°17'0 0.0
2018-Jul-17 07:30N 33°46' W 118°17'0 0.0
2018-Jul-17 07:00N 33°46' W 118°17'0 0.0
2018-Jul-17 06:30N 33°46' W 118°17'0 0.0
2018-Jul-17 06:00N 33°46' W 118°17'0 0.0
2018-Jul-17 05:30N 33°46' W 118°17'0 0.0
2018-Jul-17 05:00N 33°46' W 118°17'0 0.0
2018-Jul-17 04:30N 33°46' W 118°17'0 0.0
2018-Jul-17 04:00N 33°46' W 118°17'0 0.0
2018-Jul-17 03:30N 33°46' W 118°17'0 0.0
2018-Jul-17 03:00N 33°46' W 118°17'0 0.0
2018-Jul-17 02:30N 33°46' W 118°17'0 0.0
2018-Jul-17 02:00N 33°46' W 118°17'0 0.0
2018-Jul-17 01:30N 33°46' W 118°17'0 0.0
2018-Jul-17 01:00N 33°46' W 118°17'0 0.0
2018-Jul-17 00:30N 33°46' W 118°17'0 0.1
2018-Jul-16 23:30N 33°45' W 118°17'2 4.1
2018-Jul-16 23:00N 33°43' W 118°16'4 8.5
2018-Jul-16 22:30N 33°40' W 118°13'4 7.8
2018-Jul-16 22:00N 33°37' W 118°11'4 8.3
2018-Jul-16 21:30N 33°33' W 118°09'5 9.9
2018-Jul-16 21:01N 33°28' W 118°07'714.0
2018-Jul-16 20:30N 33°22' W 118°04'816.0
2018-Jul-16 20:00N 33°15' W 117°58'1020.3
2018-Jul-16 19:30N 33°07' W 117°51'1021.0
2018-Jul-16 19:00N 32°58' W 117°44'1020.9
2018-Jul-16 18:30N 32°50' W 117°36'1019.9
2018-Jul-16 18:00N 32°43' W 117°28'918.5
2018-Jul-16 17:30N 32°38' W 117°18'4 8.7
2018-Jul-16 17:00N 32°40' W 117°14'3 6.9
2018-Jul-16 16:30N 32°43' W 117°12'4 8.9
2018-Jul-16 16:00N 32°40' W 117°08'2 3.5
2018-Jul-16 15:30N 32°39' W 117°07'0 0.0
2018-Jul-16 15:00N 32°39' W 117°07'0 0.0
2018-Jul-16 14:29N 32°39' W 117°07'0 0.0
2018-Jul-16 13:59N 32°39' W 117°07'0 0.0
2018-Jul-16 13:29N 32°39' W 117°07'0 0.0
2018-Jul-16 12:59N 32°39' W 117°07'0 0.0
2018-Jul-16 12:29N 32°39' W 117°07'0 0.0
2018-Jul-16 11:56N 32°39' W 117°07'0 0.0
2018-Jul-16 11:29N 32°39' W 117°07'0 0.0
2018-Jul-16 10:59N 32°39' W 117°07'0 0.0
2018-Jul-16 10:26N 32°39' W 117°07'0 0.0
2018-Jul-16 09:50N 32°39' W 117°07'0 0.0
2018-Jul-16 09:26N 32°39' W 117°07'0 0.0
2018-Jul-16 08:59N 32°39' W 117°07'0 0.0
2018-Jul-16 08:29N 32°39' W 117°07'0 0.0
2018-Jul-16 07:59N 32°39' W 117°07'0 0.0
2018-Jul-16 07:29N 32°39' W 117°07'0 0.0
2018-Jul-16 06:59N 32°39' W 117°07'0 0.0
2018-Jul-16 06:26N 32°39' W 117°07'0 0.0
2018-Jul-16 05:59N 32°39' W 117°07'0 0.0
2018-Jul-16 05:26N 32°39' W 117°07'0 0.0
2018-Jul-16 04:56N 32°39' W 117°07'0 0.0
2018-Jul-16 04:29N 32°39' W 117°07'0 0.0
2018-Jul-16 03:56N 32°39' W 117°07'0 0.0
2018-Jul-16 03:29N 32°39' W 117°07'0 0.0
2018-Jul-16 02:50N 32°39' W 117°07'0 0.0
2018-Jul-16 02:26N 32°39' W 117°07'0 0.0
2018-Jul-16 01:56N 32°39' W 117°07'0 0.0
2018-Jul-16 01:29N 32°39' W 117°07'0 0.0
2018-Jul-16 00:56N 32°39' W 117°07'0 0.0
2018-Jul-16 00:30N 32°39' W 117°07'0 0.0
2018-Jul-16 00:00N 32°39' W 117°07'0 0.7
2018-Jul-15 23:30N 32°39' W 117°07'3 5.9
2018-Jul-15 23:00N 32°41' W 117°09'4 8.3
2018-Jul-15 22:30N 32°42' W 117°14'510.3
2018-Jul-15 22:00N 32°37' W 117°14'4 8.2
2018-Jul-15 21:30N 32°34' W 117°17'510.4
2018-Jul-15 21:00N 32°30' W 117°21'714.5
2018-Jul-15 20:30N 32°24' W 117°26'714.6
2018-Jul-15 20:01N 32°18' W 117°32'612.6
2018-Jul-15 19:30N 32°13' W 117°36'612.8
2018-Jul-15 19:00N 32°07' W 117°39'713.0
2018-Jul-15 18:30N 32°01' W 117°43'612.9
2018-Jul-15 18:00N 31°56' W 117°47'612.8
2018-Jul-15 17:30N 31°51' W 117°52'713.0
2018-Jul-15 17:00N 31°46' W 117°56'714.9
2018-Jul-15 16:30N 31°40' W 118°01'817.0
2018-Jul-15 16:00N 31°33' W 118°07'917.0
2018-Jul-15 15:30N 31°26' W 118°13'816.7
2018-Jul-15 15:00N 31°19' W 118°18'714.3
2018-Jul-15 14:30N 31°13' W 118°23'713.9
2018-Jul-15 14:00N 31°08' W 118°28'713.6
2018-Jul-15 13:30N 31°02' W 118°33'713.8
2018-Jul-15 13:00N 30°57' W 118°38'815.0
2018-Jul-15 12:30N 30°52' W 118°45'1019.8
2018-Jul-15 12:00N 30°50' W 118°56'1019.8
2018-Jul-15 11:30N 30°48' W 119°07'1019.7
2018-Jul-15 11:00N 30°47' W 119°19'1019.6
2018-Jul-15 10:30N 30°45' W 119°30'1019.4
2018-Jul-15 10:01N 30°43' W 119°41'1019.5
2018-Jul-15 09:30N 30°41' W 119°52'1019.7
2018-Jul-15 09:00N 30°39' W 120°03'1019.3
2018-Jul-15 08:30N 30°37' W 120°15'1019.3
2018-Jul-15 08:00N 30°36' W 120°25'1019.0
2018-Jul-15 07:29N 30°34' W 120°37'919.0
2018-Jul-15 07:00N 30°32' W 120°47'1019.4
2018-Jul-15 06:30N 30°30' W 120°58'1019.3
2018-Jul-15 06:00N 30°29' W 121°09'5327.9
2018-Jul-15 06:00N 30°24' W 121°06'1326.0 360 / 201019.110.8 16.114.218.3
2018-Jul-15 05:30N 30°27' W 121°20'1019.3
2018-Jul-15 05:00N 30°25' W 121°31'1019.3
2018-Jul-15 04:30N 30°24' W 121°42'1019.5
2018-Jul-15 04:00N 30°22' W 121°53'1119.6
2018-Jul-15 03:26N 30°21' W 122°06'919.5
2018-Jul-15 02:58N 30°19' W 122°17'919.6
2018-Jul-15 02:30N 30°18' W 122°27'1119.6
2018-Jul-15 01:57N 30°16' W 122°39'919.4
2018-Jul-15 01:30N 30°15' W 122°49'1019.4
2018-Jul-15 00:59N 30°14' W 123°01'1019.5
2018-Jul-15 00:28N 30°12' W 123°12'919.5
2018-Jul-15 00:00N 30°11' W 123°23'1019.5
2018-Jul-14 23:30N 30°10' W 123°34'1019.6
2018-Jul-14 23:00N 30°08' W 123°45'1019.5
2018-Jul-14 22:30N 30°07' W 123°56'1219.3
2018-Jul-14 21:53N 30°05' W 124°10'819.2
2018-Jul-14 21:29N 30°04' W 124°19'919.3
2018-Jul-14 21:00N 30°02' W 124°30'1619.3
2018-Jul-14 20:09N 29°60' W 124°48'318.9
2018-Jul-14 20:00N 29°59' W 124°51'1819.2
2018-Jul-14 19:02N 29°56' W 125°12'118.8
2018-Jul-14 19:00N 29°56' W 125°13'1716.4
2018-Jul-14 18:00N 29°48' W 125°30'944.9 010 / 121023.010.8 18.313.420.0
2018-Jul-14 17:48N 29°52' W 125°39'2319.6
2018-Jul-14 16:36N 29°48' W 126°06'2420.3
2018-Jul-14 15:24N 29°44' W 126°33'6619.4
2018-Jul-14 12:00N 29°30' W 127°48'9121.0 360 / 101022.010.8 18.813.023.1
2018-Jul-14 07:38N 29°18' W 129°32'27320.0
2018-Jul-13 18:00N 28°18' W 134°36'12520.9 040 / 101024.010.8 20.513.824.1
2018-Jul-13 12:00N 27°48' W 136°54'80620.7 050 / 81022.010.8 20.014.424.6
2018-Jul-11 21:00N 23°42' W 151°06'5518.3 070 / 151021.010.8 25.518.727.9
2018-Jul-11 18:00N 23°18' W 152°00'   070 / 181022.010.8 24.419.327.9

Dump ship's entire track history